Time;durP1;ratioP1;P1;durP2;ratioP2;P2;SDS_P1;SDS_P2;PMS_P1;PMS_P2;Temp;Humidity;BMP_temperature;BMP_pressure;BME280_temperature;BME280_humidity;BME280_pressure;Samples;Min_cycle;Max_cycle;Signal;HPM_P1;HPM_P2
2023/10/27 00:01:06;;;;;;;24.23;11.73;;;10.50;99.90;;;;;;5003763;28;20205;-74
2023/10/27 00:03:32;;;;;;;23.27;11.10;;;10.60;99.90;;;;;;5014184;28;20219;-73
2023/10/27 00:05:57;;;;;;;27.20;11.87;;;10.50;99.90;;;;;;5002141;28;20825;-73
2023/10/27 00:08:24;;;;;;;29.50;11.73;;;10.50;99.90;;;;;;5000229;28;20204;-73
2023/10/27 00:10:50;;;;;;;26.33;11.67;;;10.50;99.90;;;;;;5000876;28;20723;-73
2023/10/27 00:13:15;;;;;;;28.73;10.60;;;10.50;99.90;;;;;;5000795;28;20209;-74
2023/10/27 00:15:41;;;;;;;28.43;11.93;;;10.50;99.90;;;;;;5001203;28;20737;-74
2023/10/27 00:18:07;;;;;;;29.70;11.00;;;10.50;99.90;;;;;;4999642;28;20994;-73
2023/10/27 00:20:33;;;;;;;24.87;11.30;;;10.50;99.90;;;;;;5002318;28;20260;-74
2023/10/27 00:22:58;;;;;;;28.53;11.77;;;10.50;99.90;;;;;;4998682;28;20289;-73
2023/10/27 00:25:25;;;;;;;27.70;11.90;;;10.50;99.90;;;;;;4998009;28;20240;-73
2023/10/27 00:27:50;;;;;;;27.57;12.13;;;10.50;99.90;;;;;;4999306;28;20217;-74
2023/10/27 00:30:17;;;;;;;22.90;11.20;;;10.50;99.90;;;;;;5001933;28;20228;-72
2023/10/27 00:32:43;;;;;;;32.97;12.03;;;10.60;99.90;;;;;;5003114;28;20236;-73
2023/10/27 00:35:08;;;;;;;31.60;12.77;;;10.50;99.90;;;;;;5002880;28;20703;-74
2023/10/27 00:37:37;;;;;;;26.47;11.30;;;10.50;99.90;;;;;;5007738;28;20221;-74
2023/10/27 00:40:04;;;;;;;29.47;12.47;;;10.50;99.90;;;;;;5001370;28;20674;-73
2023/10/27 00:42:30;;;;;;;29.63;12.87;;;10.50;99.90;;;;;;4998953;28;20213;-76
2023/10/27 00:44:56;;;;;;;35.23;11.93;;;10.50;99.90;;;;;;4999234;28;20763;-73
2023/10/27 00:47:23;;;;;;;27.83;12.00;;;10.40;99.90;;;;;;4999999;28;20188;-73
2023/10/27 00:49:49;;;;;;;31.23;14.20;;;10.40;99.90;;;;;;4999836;28;20680;-73
2023/10/27 00:52:17;;;;;;;26.00;10.77;;;10.40;99.90;;;;;;5001732;28;20204;-73
2023/10/27 00:54:46;;;;;;;28.10;10.70;;;10.40;99.90;;;;;;4999203;28;20227;-73
2023/10/27 00:57:13;;;;;;;34.37;12.03;;;10.40;99.90;;;;;;5004998;28;20228;-73
2023/10/27 00:59:39;;;;;;;28.93;11.37;;;10.40;99.90;;;;;;5007797;28;20203;-73
2023/10/27 01:02:04;;;;;;;26.00;11.33;;;10.30;99.90;;;;;;5001090;28;20714;-74
2023/10/27 01:04:30;;;;;;;28.50;11.30;;;10.30;99.90;;;;;;5005253;28;20259;-73
2023/10/27 01:06:56;;;;;;;25.83;11.20;;;10.30;99.90;;;;;;5001307;28;20694;-73
2023/10/27 01:09:22;;;;;;;29.70;12.43;;;10.30;99.90;;;;;;5006287;28;20296;-73
2023/10/27 01:11:49;;;;;;;27.57;11.03;;;10.30;99.90;;;;;;5007504;28;20286;-73
2023/10/27 01:14:14;;;;;;;30.17;11.60;;;10.40;99.90;;;;;;5010227;28;20200;-73
2023/10/27 01:16:40;;;;;;;25.03;10.90;;;10.30;99.90;;;;;;5010047;28;20221;-73
2023/10/27 01:19:06;;;;;;;28.40;12.37;;;10.30;99.90;;;;;;5007534;28;20217;-73
2023/10/27 01:21:32;;;;;;;27.03;11.60;;;10.30;99.90;;;;;;5002043;28;20221;-75
2023/10/27 01:23:57;;;;;;;30.20;12.70;;;10.30;99.90;;;;;;5002834;28;20222;-71
2023/10/27 01:26:23;;;;;;;31.63;11.23;;;10.30;99.90;;;;;;5008218;28;20178;-73
2023/10/27 01:28:48;;;;;;;30.83;11.17;;;10.30;99.90;;;;;;5002110;28;20206;-73
2023/10/27 01:31:15;;;;;;;32.97;12.50;;;10.40;99.90;;;;;;5005316;28;20271;-73
2023/10/27 01:33:41;;;;;;;27.70;12.93;;;10.30;99.90;;;;;;5002358;28;20284;-73
2023/10/27 01:36:07;;;;;;;31.70;11.67;;;10.40;99.90;;;;;;5005803;28;20692;-73
2023/10/27 01:38:32;;;;;;;31.60;11.60;;;10.30;99.90;;;;;;5002731;28;20240;-73
2023/10/27 01:40:58;;;;;;;27.17;10.03;;;10.30;99.90;;;;;;5003480;28;21317;-72
2023/10/27 01:43:23;;;;;;;28.30;11.17;;;10.30;99.90;;;;;;5006984;28;20680;-73
2023/10/27 01:45:49;;;;;;;30.37;11.83;;;10.30;99.90;;;;;;5005268;28;20217;-74
2023/10/27 01:48:14;;;;;;;30.90;11.73;;;10.30;99.90;;;;;;5005625;28;20712;-74
2023/10/27 01:50:41;;;;;;;33.70;12.73;;;10.20;99.90;;;;;;5003099;28;20227;-73
2023/10/27 01:53:07;;;;;;;29.40;11.27;;;10.30;99.90;;;;;;5002033;28;20206;-74
2023/10/27 01:55:32;;;;;;;26.90;12.03;;;10.30;99.90;;;;;;5003913;28;20270;-73
2023/10/27 01:57:58;;;;;;;27.67;11.73;;;10.30;99.90;;;;;;5004222;28;20684;-73
2023/10/27 02:00:23;;;;;;;32.63;12.00;;;10.30;99.90;;;;;;5005295;28;20581;-73
2023/10/27 02:02:49;;;;;;;30.03;11.27;;;10.30;99.90;;;;;;5002669;28;20185;-73
2023/10/27 02:05:15;;;;;;;27.20;11.77;;;10.30;99.90;;;;;;5032992;22;20267;-79
2023/10/27 02:07:40;;;;;;;35.57;12.33;;;10.30;99.90;;;;;;5021785;28;20209;-79
2023/10/27 02:10:06;;;;;;;37.37;12.77;;;10.40;99.90;;;;;;5015844;28;20225;-79
2023/10/27 02:12:32;;;;;;;28.07;10.97;;;10.30;99.90;;;;;;5038783;28;20247;-79
2023/10/27 02:14:58;;;;;;;30.10;12.30;;;10.30;99.90;;;;;;5019826;28;20295;-80
2023/10/27 02:17:23;;;;;;;31.70;12.33;;;10.40;99.90;;;;;;5021047;28;20177;-79
2023/10/27 02:19:50;;;;;;;29.97;11.57;;;10.40;99.90;;;;;;5016456;28;20576;-78
2023/10/27 02:22:17;;;;;;;30.93;12.47;;;10.30;99.90;;;;;;5012311;28;20243;-78
2023/10/27 02:24:43;;;;;;;28.50;11.90;;;10.30;99.90;;;;;;5008723;28;20201;-79
2023/10/27 02:27:09;;;;;;;30.07;11.63;;;10.30;99.90;;;;;;5011098;28;20305;-78
2023/10/27 02:29:34;;;;;;;34.07;11.90;;;10.40;99.90;;;;;;5010413;28;20264;-78
2023/10/27 02:32:00;;;;;;;31.80;12.47;;;10.20;99.90;;;;;;5006053;28;20263;-78
2023/10/27 02:34:25;;;;;;;32.87;13.07;;;10.20;99.90;;;;;;5011826;28;20255;-78
2023/10/27 02:36:51;;;;;;;36.10;14.07;;;10.30;99.90;;;;;;5011180;28;20315;-78
2023/10/27 02:39:17;;;;;;;28.80;12.77;;;10.30;99.90;;;;;;5010784;28;20741;-78
2023/10/27 02:41:42;;;;;;;27.77;12.10;;;10.30;99.90;;;;;;5010512;28;20204;-80
2023/10/27 02:44:09;;;;;;;28.87;12.47;;;10.30;99.90;;;;;;5011295;28;20240;-78
2023/10/27 02:46:36;;;;;;;31.57;12.30;;;10.30;99.90;;;;;;5003327;28;20263;-78
2023/10/27 02:49:05;;;;;;;28.30;12.10;;;10.30;99.90;;;;;;5011218;28;20216;-79
2023/10/27 02:51:31;;;;;;;32.53;13.03;;;10.40;99.90;;;;;;5011037;28;20293;-78
2023/10/27 02:53:58;;;;;;;31.77;12.20;;;10.30;99.90;;;;;;5011789;28;20181;-75
2023/10/27 02:56:23;;;;;;;31.67;12.10;;;10.40;99.90;;;;;;5012526;28;20384;-78
2023/10/27 02:58:49;;;;;;;31.77;11.80;;;10.40;99.90;;;;;;5010699;28;20224;-77
2023/10/27 03:01:15;;;;;;;33.07;11.93;;;10.40;99.90;;;;;;5008066;28;20213;-79
2023/10/27 03:03:42;;;;;;;25.67;10.83;;;10.40;99.90;;;;;;5009673;28;20212;-78
2023/10/27 03:06:08;;;;;;;28.73;12.03;;;10.40;99.90;;;;;;5007355;28;20235;-78
2023/10/27 03:08:34;;;;;;;28.93;10.73;;;10.40;99.90;;;;;;5010027;28;20188;-78
2023/10/27 03:11:00;;;;;;;24.73;11.50;;;10.40;99.90;;;;;;5008044;28;20213;-78
2023/10/27 03:13:30;;;;;;;28.90;11.93;;;10.40;99.90;;;;;;5008718;28;20588;-78
2023/10/27 03:16:00;;;;;;;24.90;11.83;;;10.40;99.90;;;;;;5008106;28;20270;-78
2023/10/27 03:18:27;;;;;;;28.20;11.13;;;10.40;99.90;;;;;;5008711;28;20271;-79
2023/10/27 03:21:00;;;;;;;26.53;11.50;;;10.40;99.90;;;;;;5008254;28;20185;-78
2023/10/27 03:23:27;;;;;;;25.47;10.90;;;10.50;99.90;;;;;;5008057;28;20648;-78
2023/10/27 03:25:53;;;;;;;24.67;11.03;;;10.50;99.90;;;;;;5008536;28;20236;-79
2023/10/27 03:28:22;;;;;;;25.27;10.63;;;10.50;99.90;;;;;;5007286;28;20596;-78
2023/10/27 03:30:48;;;;;;;27.77;10.97;;;10.50;99.90;;;;;;5005975;28;20723;-78
2023/10/27 03:33:14;;;;;;;24.47;10.83;;;10.50;99.90;;;;;;5008413;28;20292;-78
2023/10/27 03:35:42;;;;;;;22.00;10.47;;;10.50;99.90;;;;;;5010381;28;20584;-78
2023/10/27 03:38:09;;;;;;;25.87;10.73;;;10.50;99.90;;;;;;5010637;28;20209;-79
2023/10/27 03:40:38;;;;;;;22.77;10.33;;;10.50;99.90;;;;;;5010463;28;20686;-78
2023/10/27 03:43:04;;;;;;;25.73;10.23;;;10.50;99.90;;;;;;5008734;28;20691;-78
2023/10/27 03:45:30;;;;;;;22.43;10.83;;;10.50;99.90;;;;;;5019471;28;20235;-79
2023/10/27 03:47:56;;;;;;;22.83;10.20;;;10.50;99.90;;;;;;5009643;28;20268;-78
2023/10/27 03:50:21;;;;;;;21.70;10.63;;;10.50;99.90;;;;;;5010839;28;20292;-78
2023/10/27 03:52:47;;;;;;;27.37;10.70;;;10.50;99.90;;;;;;5007120;28;20220;-76
2023/10/27 03:55:12;;;;;;;26.25;12.38;;;10.50;99.90;;;;;;5024051;28;20415;-79
2023/10/27 03:57:40;;;;;;;22.83;10.47;;;10.50;99.90;;;;;;5007849;28;20226;-75
2023/10/27 04:00:07;;;;;;;25.53;11.63;;;10.50;99.90;;;;;;5009477;28;20196;-78
2023/10/27 04:02:33;;;;;;;22.47;11.00;;;10.40;99.90;;;;;;5009564;28;20269;-78
2023/10/27 04:04:59;;;;;;;24.57;10.40;;;10.30;99.90;;;;;;4969032;28;1117546;-75
2023/10/27 04:07:25;;;;;;;23.40;10.33;;;10.40;99.90;;;;;;5009865;28;20205;-78
2023/10/27 04:09:51;;;;;;;23.17;10.77;;;10.40;99.90;;;;;;5010014;28;20216;-78
2023/10/27 04:12:16;;;;;;;22.90;10.10;;;10.30;99.90;;;;;;5010799;28;20556;-78
2023/10/27 04:14:42;;;;;;;24.17;11.43;;;10.30;99.90;;;;;;5007910;28;20292;-79
2023/10/27 04:17:08;;;;;;;23.53;10.63;;;10.30;99.90;;;;;;5008437;28;20582;-78
2023/10/27 04:19:33;;;;;;;21.87;10.53;;;10.30;99.90;;;;;;5008901;28;20236;-78
2023/10/27 04:21:59;;;;;;;23.63;10.23;;;10.30;99.90;;;;;;5009432;28;20221;-78
2023/10/27 04:24:25;;;;;;;27.27;12.13;;;10.30;99.90;;;;;;5027216;28;20683;-78
2023/10/27 04:26:51;;;;;;;25.33;11.40;;;10.30;99.90;;;;;;5009754;28;20276;-78
2023/10/27 04:29:17;;;;;;;25.07;10.70;;;10.30;99.90;;;;;;5010079;28;20177;-79
2023/10/27 04:31:44;;;;;;;21.13;10.47;;;10.30;99.90;;;;;;5010618;28;20300;-78
2023/10/27 04:34:10;;;;;;;26.27;10.20;;;10.40;99.90;;;;;;5010523;28;20210;-78
2023/10/27 04:36:36;;;;;;;24.13;10.47;;;10.30;99.90;;;;;;5011670;28;20229;-78
2023/10/27 04:39:03;;;;;;;27.33;10.93;;;10.30;99.90;;;;;;5007717;28;20196;-78
2023/10/27 04:41:30;;;;;;;19.50;9.30;;;10.30;99.90;;;;;;5009140;28;20168;-78
2023/10/27 04:43:56;;;;;;;23.53;10.60;;;10.30;99.90;;;;;;5007754;28;20212;-78
2023/10/27 04:46:22;;;;;;;22.10;10.23;;;10.30;99.90;;;;;;5008892;28;20223;-78
2023/10/27 04:48:48;;;;;;;24.23;10.53;;;10.20;99.90;;;;;;5025434;28;20216;-77
2023/10/27 04:51:14;;;;;;;25.23;9.80;;;10.30;99.90;;;;;;5010905;28;20227;-79
2023/10/27 04:53:39;;;;;;;24.97;10.63;;;10.30;99.90;;;;;;5009663;28;20194;-78
2023/10/27 04:56:05;;;;;;;21.73;10.60;;;10.30;99.90;;;;;;5006075;28;20221;-78
2023/10/27 04:58:31;;;;;;;22.93;9.80;;;10.30;99.90;;;;;;5026298;28;20266;-78
2023/10/27 05:00:57;;;;;;;22.97;11.57;;;10.20;99.90;;;;;;5025174;28;20218;-76
2023/10/27 05:03:22;;;;;;;25.20;10.40;;;10.20;99.90;;;;;;5010235;28;20212;-77
2023/10/27 05:05:48;;;;;;;19.47;10.13;;;10.30;99.90;;;;;;5010070;28;20591;-79
2023/10/27 05:08:14;;;;;;;24.00;9.60;;;10.20;99.90;;;;;;5010343;28;20176;-78
2023/10/27 05:10:40;;;;;;;27.70;10.63;;;10.20;99.90;;;;;;5016476;28;20220;-78
2023/10/27 05:13:06;;;;;;;22.60;10.70;;;10.20;99.90;;;;;;5006928;28;20208;-78
2023/10/27 05:15:32;;;;;;;22.20;10.23;;;10.20;99.90;;;;;;5023282;28;20283;-78
2023/10/27 05:18:04;;;;;;;25.60;10.40;;;10.20;99.90;;;;;;5006365;28;20177;-78
2023/10/27 05:20:34;;;;;;;23.00;11.40;;;10.20;99.90;;;;;;5009929;28;20174;-78
2023/10/27 05:23:00;;;;;;;20.43;10.23;;;10.20;99.90;;;;;;5014395;28;20569;-77
2023/10/27 05:25:25;;;;;;;22.27;11.13;;;10.30;99.90;;;;;;5008169;28;20228;-78
2023/10/27 05:27:51;;;;;;;21.73;9.87;;;10.20;99.90;;;;;;5009784;28;20216;-79
2023/10/27 05:30:17;;;;;;;22.77;10.03;;;10.20;99.90;;;;;;5010154;28;20243;-78
2023/10/27 05:32:42;;;;;;;30.03;10.63;;;10.20;99.90;;;;;;4998857;28;20197;-79
2023/10/27 05:35:08;;;;;;;21.30;10.40;;;10.20;99.90;;;;;;5007422;28;20228;-79
2023/10/27 05:37:33;;;;;;;23.33;10.17;;;10.20;99.90;;;;;;5009475;28;20216;-78
2023/10/27 05:39:59;;;;;;;27.57;11.43;;;10.20;99.90;;;;;;5007429;28;20224;-78
2023/10/27 05:42:25;;;;;;;23.10;12.00;;;10.20;99.90;;;;;;5008449;28;20213;-78
2023/10/27 05:44:50;;;;;;;21.67;9.77;;;10.20;99.90;;;;;;5009507;28;20185;-78
2023/10/27 05:47:16;;;;;;;25.10;10.07;;;10.20;99.90;;;;;;5027556;28;20196;-81
2023/10/27 05:49:42;;;;;;;21.13;10.07;;;10.20;99.90;;;;;;5013741;28;20220;-76
2023/10/27 05:52:07;;;;;;;25.77;10.10;;;10.20;99.90;;;;;;5011384;28;20240;-78
2023/10/27 05:54:33;;;;;;;26.67;12.17;;;10.20;99.90;;;;;;5010998;28;20271;-76
2023/10/27 05:56:58;;;;;;;22.20;10.17;;;10.20;99.90;;;;;;5013575;28;20185;-80
2023/10/27 05:59:24;;;;;;;22.90;10.37;;;10.20;99.90;;;;;;5015031;28;20193;-78
2023/10/27 06:01:53;;;;;;;24.80;11.43;;;10.10;99.90;;;;;;5013391;28;20244;-78
2023/10/27 06:04:18;;;;;;;22.83;10.30;;;10.20;99.90;;;;;;5012277;28;20239;-79
2023/10/27 06:06:44;;;;;;;23.97;11.13;;;10.20;99.90;;;;;;5011049;28;20248;-79
2023/10/27 06:09:10;;;;;;;29.47;11.33;;;10.20;99.90;;;;;;5010570;28;20291;-79
2023/10/27 06:11:35;;;;;;;23.77;10.80;;;10.20;99.90;;;;;;5012035;28;20216;-79
2023/10/27 06:14:02;;;;;;;22.83;10.80;;;10.20;99.90;;;;;;5011676;28;20213;-79
2023/10/27 06:16:28;;;;;;;22.77;9.83;;;10.20;99.90;;;;;;5011518;28;20209;-79
2023/10/27 06:18:54;;;;;;;20.40;9.60;;;10.10;99.90;;;;;;5019025;28;20256;-81
2023/10/27 06:21:19;;;;;;;22.50;9.70;;;10.10;99.90;;;;;;5011466;28;20205;-78
2023/10/27 06:23:45;;;;;;;17.53;9.23;;;10.10;99.90;;;;;;5008311;28;20639;-79
2023/10/27 06:26:11;;;;;;;24.70;9.70;;;10.10;99.90;;;;;;5011030;28;20208;-79
2023/10/27 06:28:37;;;;;;;22.47;10.60;;;10.20;99.90;;;;;;5010337;28;20224;-79
2023/10/27 06:31:03;;;;;;;24.27;9.57;;;10.10;99.90;;;;;;5012401;28;20220;-79
2023/10/27 06:33:32;;;;;;;23.50;10.10;;;10.20;99.90;;;;;;5012659;28;20200;-79
2023/10/27 06:35:59;;;;;;;18.33;9.57;;;10.30;99.90;;;;;;5012381;28;20224;-77
2023/10/27 06:38:25;;;;;;;23.90;9.50;;;10.20;99.90;;;;;;5014374;28;20176;-79
2023/10/27 06:40:50;;;;;;;21.17;8.97;;;10.30;99.90;;;;;;5010740;28;20205;-77
2023/10/27 06:43:16;;;;;;;25.00;10.50;;;10.20;99.90;;;;;;5009831;28;20240;-79
2023/10/27 06:45:42;;;;;;;23.60;11.27;;;10.20;99.90;;;;;;5011784;28;20221;-78
2023/10/27 06:48:07;;;;;;;20.00;9.83;;;10.20;99.90;;;;;;5010204;28;20221;-79
2023/10/27 06:50:33;;;;;;;26.97;10.40;;;10.20;99.90;;;;;;5013266;28;20204;-78
2023/10/27 06:52:58;;;;;;;18.80;8.73;;;10.20;99.90;;;;;;5010116;28;20219;-78
2023/10/27 06:55:24;;;;;;;22.03;9.27;;;10.20;99.90;;;;;;5011917;28;20691;-79
2023/10/27 06:57:50;;;;;;;23.33;10.03;;;10.20;99.90;;;;;;5010075;28;20216;-79
2023/10/27 07:00:15;;;;;;;26.80;10.50;;;10.20;99.90;;;;;;5012031;28;20754;-79
2023/10/27 07:02:41;;;;;;;24.90;10.00;;;10.20;99.90;;;;;;5012705;28;20185;-79
2023/10/27 07:05:10;;;;;;;34.03;11.57;;;10.20;99.90;;;;;;5011667;28;20311;-79
2023/10/27 07:07:36;;;;;;;26.57;10.77;;;10.10;99.90;;;;;;5012084;28;20251;-79
2023/10/27 07:10:04;;;;;;;26.23;9.93;;;10.10;99.90;;;;;;5006903;28;20266;-79
2023/10/27 07:12:30;;;;;;;24.60;9.83;;;10.20;99.90;;;;;;5010299;28;20691;-79
2023/10/27 07:14:56;;;;;;;22.27;8.83;;;10.20;99.90;;;;;;5008601;28;20687;-78
2023/10/27 07:17:22;;;;;;;23.43;9.83;;;10.20;99.90;;;;;;5011340;28;20174;-80
2023/10/27 07:19:48;;;;;;;20.83;9.57;;;10.20;99.90;;;;;;5010153;28;20231;-79
2023/10/27 07:22:14;;;;;;;20.83;9.83;;;10.20;99.90;;;;;;5021842;28;20692;-79
2023/10/27 07:24:40;;;;;;;29.20;10.37;;;10.30;99.90;;;;;;5011771;28;20229;-79
2023/10/27 07:27:05;;;;;;;20.57;10.30;;;10.30;99.90;;;;;;5011548;28;21303;-79
2023/10/27 07:29:32;;;;;;;18.80;10.63;;;10.20;99.90;;;;;;5008950;28;20185;-78
2023/10/27 07:31:57;;;;;;;19.50;8.97;;;10.30;99.90;;;;;;5010553;28;20312;-78
2023/10/27 07:34:23;;;;;;;21.73;10.07;;;10.30;99.90;;;;;;5009514;28;20299;-80
2023/10/27 07:36:49;;;;;;;24.63;11.10;;;10.40;99.90;;;;;;5009939;28;20703;-78
2023/10/27 07:39:14;;;;;;;27.43;10.60;;;10.40;99.90;;;;;;5015765;28;20232;-79
2023/10/27 07:41:40;;;;;;;25.13;11.20;;;10.40;99.90;;;;;;5010322;28;20268;-79
2023/10/27 07:44:05;;;;;;;30.13;12.50;;;10.40;99.90;;;;;;5009716;28;20263;-79
2023/10/27 07:46:31;;;;;;;26.40;10.83;;;10.40;99.90;;;;;;5008970;28;20213;-80
2023/10/27 07:48:57;;;;;;;30.10;13.10;;;10.40;99.90;;;;;;5008648;28;20208;-76
2023/10/27 07:51:23;;;;;;;31.40;11.33;;;10.40;99.90;;;;;;5026074;28;20236;-80
2023/10/27 07:53:49;;;;;;;26.67;11.33;;;10.50;99.90;;;;;;5008378;28;20216;-78
2023/10/27 07:56:16;;;;;;;22.63;11.00;;;10.50;99.90;;;;;;5009729;28;20205;-79
2023/10/27 07:58:42;;;;;;;28.20;11.97;;;10.40;99.90;;;;;;5011340;28;20312;-78
2023/10/27 08:01:07;;;;;;;25.73;11.90;;;10.40;99.90;;;;;;5009854;28;20291;-79
2023/10/27 08:03:38;;;;;;;21.73;11.57;;;10.50;99.90;;;;;;5011219;28;20295;-79
2023/10/27 08:06:07;;;;;;;22.37;11.17;;;10.50;99.90;;;;;;5003189;28;20236;-78
2023/10/27 08:08:33;;;;;;;23.43;11.13;;;10.60;99.90;;;;;;5009747;28;20181;-79
2023/10/27 08:11:00;;;;;;;25.27;11.33;;;10.50;99.90;;;;;;5008889;28;20654;-77
2023/10/27 08:13:26;;;;;;;24.90;11.17;;;10.50;99.90;;;;;;5025482;28;20200;-78
2023/10/27 08:15:51;;;;;;;22.37;11.07;;;10.60;99.90;;;;;;5007476;28;20213;-79
2023/10/27 08:18:17;;;;;;;24.97;10.03;;;10.50;99.90;;;;;;5017529;28;20209;-78
2023/10/27 08:20:43;;;;;;;19.90;9.60;;;10.60;99.90;;;;;;5012157;28;20204;-79
2023/10/27 08:23:09;;;;;;;22.93;11.00;;;10.60;99.90;;;;;;5008229;28;20292;-78
2023/10/27 08:25:36;;;;;;;27.43;11.90;;;10.60;99.90;;;;;;5010309;28;20244;-78
2023/10/27 08:28:03;;;;;;;21.87;11.33;;;10.60;99.90;;;;;;5008167;28;20221;-79
2023/10/27 08:30:28;;;;;;;21.97;11.10;;;10.60;99.90;;;;;;5008326;28;20233;-78
2023/10/27 08:32:54;;;;;;;22.20;11.17;;;10.60;99.90;;;;;;5008928;28;20214;-79
2023/10/27 08:35:19;;;;;;;22.67;10.57;;;10.60;99.90;;;;;;5010225;28;20208;-77
2023/10/27 08:37:45;;;;;;;21.97;9.87;;;10.60;99.90;;;;;;5011072;28;20205;-77
2023/10/27 08:40:12;;;;;;;21.43;10.40;;;10.60;99.90;;;;;;5011077;28;20216;-78
2023/10/27 08:42:42;;;;;;;21.67;10.83;;;10.60;99.90;;;;;;5020459;28;20210;-77
2023/10/27 08:45:08;;;;;;;24.00;11.10;;;10.60;99.90;;;;;;5008663;28;20327;-78
2023/10/27 08:47:34;;;;;;;21.03;10.27;;;10.60;99.90;;;;;;5024059;28;20189;-79
2023/10/27 08:50:04;;;;;;;21.90;11.10;;;10.60;99.90;;;;;;5009696;28;20213;-78
2023/10/27 08:52:33;;;;;;;24.07;11.27;;;10.60;99.90;;;;;;5007387;28;20236;-78
2023/10/27 08:55:02;;;;;;;22.73;10.80;;;10.60;99.90;;;;;;5008520;28;20220;-78
2023/10/27 08:57:28;;;;;;;26.53;10.43;;;10.60;99.90;;;;;;5010791;28;20299;-79
2023/10/27 08:59:54;;;;;;;20.83;10.37;;;10.60;99.90;;;;;;5009507;28;20220;-79
2023/10/27 09:02:31;;;;;;;21.73;10.83;;;10.60;99.90;;;;;;5016343;28;20187;-77
2023/10/27 09:05:08;;;;;;;22.67;10.10;;;10.60;99.90;;;;;;5010551;28;20217;-79
2023/10/27 09:07:35;;;;;;;19.23;9.77;;;10.60;99.90;;;;;;5009464;28;20213;-79
2023/10/27 09:10:02;;;;;;;20.93;10.57;;;10.60;99.90;;;;;;5017931;28;20223;-78
2023/10/27 09:12:30;;;;;;;22.20;10.13;;;10.60;99.90;;;;;;5008040;28;20224;-78
2023/10/27 09:15:07;;;;;;;20.50;10.07;;;10.70;99.90;;;;;;5010016;28;20197;-78
2023/10/27 09:17:53;;;;;;;58.53;28.27;;;10.70;99.90;;;;;;5021487;28;20176;-78
2023/10/27 09:20:21;;;;;;;19.03;10.27;;;10.60;99.90;;;;;;5025862;28;20209;-78
2023/10/27 09:23:05;;;;;;;18.20;9.30;;;10.60;99.90;;;;;;5013361;28;20216;-79
2023/10/27 09:25:32;;;;;;;21.27;9.23;;;10.70;99.90;;;;;;5013634;28;20690;-78
2023/10/27 09:28:00;;;;;;;22.23;9.67;;;10.80;99.90;;;;;;5014153;28;20250;-77
2023/10/27 09:30:30;;;;;;;20.07;9.17;;;10.80;99.90;;;;;;5012266;28;20617;-78
2023/10/27 09:33:16;;;;;;;18.87;8.83;;;10.80;99.90;;;;;;5012898;28;20185;-78
2023/10/27 09:35:43;;;;;;;18.17;9.33;;;10.80;99.90;;;;;;5001876;28;20208;-78
2023/10/27 09:38:09;;;;;;;20.23;8.77;;;10.80;99.90;;;;;;5012608;28;20224;-78
2023/10/27 09:40:39;;;;;;;20.43;9.40;;;10.80;99.90;;;;;;5012028;28;20283;-79
2023/10/27 09:43:19;;;;;;;18.43;8.57;;;10.80;99.90;;;;;;5019994;28;20209;-78
2023/10/27 09:45:55;;;;;;;15.93;8.20;;;10.80;99.90;;;;;;5006844;28;20624;-78
2023/10/27 09:48:27;;;;;;;16.53;8.83;;;10.80;99.90;;;;;;5012255;28;20217;-79
2023/10/27 09:51:11;;;;;;;15.57;8.47;;;10.90;99.90;;;;;;5015106;28;20207;-79
2023/10/27 09:53:38;;;;;;;17.83;9.57;;;10.90;99.90;;;;;;5011032;28;20174;-78
2023/10/27 09:56:05;;;;;;;19.50;9.63;;;10.90;99.90;;;;;;5010344;28;20688;-78
2023/10/27 09:58:33;;;;;;;16.23;9.00;;;10.80;99.90;;;;;;5013779;28;20262;-78
2023/10/27 10:01:00;;;;;;;18.10;9.33;;;10.80;99.90;;;;;;5012443;28;20299;-79
2023/10/27 10:03:29;;;;;;;15.43;8.97;;;10.80;99.90;;;;;;5011014;28;20351;-79
2023/10/27 10:06:13;;;;;;;13.97;8.07;;;10.80;99.90;;;;;;5011906;28;20300;-79
2023/10/27 10:08:40;;;;;;;16.73;9.17;;;10.90;99.90;;;;;;5009183;28;20200;-79
2023/10/27 10:11:17;;;;;;;15.37;8.80;;;10.90;99.90;;;;;;5012700;28;20271;-79
2023/10/27 10:13:44;;;;;;;17.63;9.00;;;11.00;99.90;;;;;;5014032;28;20208;-78
2023/10/27 10:16:11;;;;;;;17.77;9.27;;;10.90;99.90;;;;;;5019560;28;20580;-79
2023/10/27 10:18:37;;;;;;;17.87;9.17;;;10.90;99.90;;;;;;5028395;28;20287;-78
2023/10/27 10:21:03;;;;;;;17.73;9.93;;;10.90;99.90;;;;;;5014641;28;20255;-79
2023/10/27 10:23:37;;;;;;;19.73;9.43;;;10.90;99.90;;;;;;5007037;28;20205;-79
2023/10/27 10:26:03;;;;;;;18.23;8.93;;;11.00;99.90;;;;;;5011462;28;20227;-75
2023/10/27 10:28:33;;;;;;;20.60;10.40;;;11.00;99.90;;;;;;5011787;28;20209;-78
2023/10/27 10:31:10;;;;;;;16.00;8.63;;;11.00;99.90;;;;;;5009567;28;20224;-77
2023/10/27 10:33:37;;;;;;;19.23;8.97;;;10.90;99.90;;;;;;5009977;28;20211;-77
2023/10/27 10:36:27;;;;;;;14.47;9.07;;;10.90;99.90;;;;;;5027620;28;20193;-75
2023/10/27 10:38:55;;;;;;;24.80;10.97;;;10.90;99.90;;;;;;5002952;28;20222;-78
2023/10/27 10:41:22;;;;;;;18.23;9.17;;;11.00;99.90;;;;;;5012301;28;20745;-77
2023/10/27 10:44:11;;;;;;;22.53;10.93;;;10.90;99.90;;;;;;5012901;28;20215;-78
2023/10/27 10:46:37;;;;;;;23.43;11.60;;;11.00;99.90;;;;;;5009500;28;20233;-78
2023/10/27 10:49:02;;;;;;;20.10;9.77;;;10.90;99.90;;;;;;5009471;28;20715;-78
2023/10/27 10:51:36;;;;;;;16.03;10.07;;;11.00;99.90;;;;;;5008642;28;20217;-78
2023/10/27 10:54:02;;;;;;;18.27;9.03;;;10.90;99.90;;;;;;5009619;28;20655;-78
2023/10/27 10:56:28;;;;;;;15.73;8.60;;;10.90;99.90;;;;;;5012222;28;20193;-77
2023/10/27 10:58:54;;;;;;;17.23;8.47;;;10.90;99.90;;;;;;5011994;28;20421;-78
2023/10/27 11:01:22;;;;;;;16.97;8.03;;;10.90;99.90;;;;;;5012183;28;20212;-78
2023/10/27 11:03:50;;;;;;;22.03;11.27;;;10.90;99.90;;;;;;5019644;28;20201;-76
2023/10/27 11:06:19;;;;;;;12.07;6.97;;;10.90;99.90;;;;;;5012382;28;20232;-74
2023/10/27 11:08:45;;;;;;;14.17;7.90;;;11.00;99.90;;;;;;5017001;28;20173;-77
2023/10/27 11:11:16;;;;;;;12.37;7.43;;;11.00;99.90;;;;;;5011069;28;20220;-77
2023/10/27 11:13:43;;;;;;;14.00;8.50;;;11.00;99.90;;;;;;5007886;28;20712;-78
2023/10/27 11:16:27;;;;;;;14.57;8.30;;;11.00;99.90;;;;;;5007976;28;20205;-78
2023/10/27 11:18:57;;;;;;;17.60;8.27;;;10.90;99.90;;;;;;5010307;28;20197;-78
2023/10/27 11:21:27;;;;;;;9.50;6.03;;;11.00;99.90;;;;;;5011522;28;20232;-79
2023/10/27 11:23:53;;;;;;;14.63;7.17;;;11.00;99.90;;;;;;5024086;28;20177;-78
2023/10/27 11:26:20;;;;;;;14.90;7.97;;;10.90;99.90;;;;;;5011821;28;20196;-78
2023/10/27 11:28:47;;;;;;;12.03;7.30;;;10.90;99.90;;;;;;5011317;28;20307;-78
2023/10/27 11:31:24;;;;;;;10.63;6.33;;;10.90;99.90;;;;;;5010112;28;20241;-78
2023/10/27 11:34:07;;;;;;;12.83;7.50;;;10.90;99.90;;;;;;5011659;28;20201;-79
2023/10/27 11:36:33;;;;;;;12.90;7.63;;;10.90;99.90;;;;;;5024463;28;20224;-79
2023/10/27 11:39:15;;;;;;;14.13;6.70;;;11.00;99.90;;;;;;5011152;28;20174;-78
2023/10/27 11:41:48;;;;;;;12.77;6.83;;;11.00;99.90;;;;;;5011666;28;20636;-78
2023/10/27 11:44:15;;;;;;;13.80;7.67;;;11.00;99.90;;;;;;5012501;28;20220;-78
2023/10/27 11:46:48;;;;;;;14.33;7.60;;;11.00;99.90;;;;;;5010682;28;20271;-77
2023/10/27 11:49:15;;;;;;;13.33;6.97;;;11.00;99.90;;;;;;5005057;28;20213;-77
2023/10/27 11:51:48;;;;;;;13.07;7.10;;;10.90;99.90;;;;;;5010705;28;20224;-79
2023/10/27 11:54:15;;;;;;;12.60;6.93;;;10.90;99.90;;;;;;5002117;28;20218;-78
2023/10/27 11:56:41;;;;;;;12.73;7.00;;;10.90;99.90;;;;;;5011044;28;20206;-78
2023/10/27 11:59:07;;;;;;;11.33;6.43;;;10.90;99.90;;;;;;5011378;28;20296;-78
2023/10/27 12:01:33;;;;;;;11.27;6.60;;;11.00;99.90;;;;;;5008778;28;20283;-78
2023/10/27 12:04:00;;;;;;;12.30;6.23;;;10.90;99.90;;;;;;5011625;28;20207;-78
2023/10/27 12:06:26;;;;;;;12.40;6.50;;;10.90;99.90;;;;;;5010910;28;20749;-78
2023/10/27 12:08:51;;;;;;;13.13;7.67;;;11.00;99.90;;;;;;5010789;28;20173;-76
2023/10/27 12:11:17;;;;;;;14.47;7.70;;;11.00;99.90;;;;;;5009599;28;20193;-78
2023/10/27 12:13:44;;;;;;;11.33;6.83;;;11.00;99.90;;;;;;5009888;28;20209;-78
2023/10/27 12:16:10;;;;;;;11.43;6.73;;;11.00;99.90;;;;;;5015129;28;20238;-78
2023/10/27 12:18:36;;;;;;;13.03;6.33;;;11.00;99.90;;;;;;5010038;28;20209;-79
2023/10/27 12:21:02;;;;;;;8.90;5.70;;;10.90;99.90;;;;;;5010576;28;20193;-78
2023/10/27 12:23:32;;;;;;;9.63;6.03;;;10.90;99.90;;;;;;5011514;28;20248;-78
2023/10/27 12:25:59;;;;;;;9.43;6.40;;;10.90;99.90;;;;;;5011514;28;20216;-77
2023/10/27 12:28:27;;;;;;;10.93;7.07;;;10.90;99.90;;;;;;5008499;28;20275;-78
2023/10/27 12:30:54;;;;;;;13.60;7.23;;;10.90;99.90;;;;;;5010947;28;20212;-78